Terminal Aerodrome Forecast
Issued by NWS Blacksburg, VA

Current Version | Previous Version | Text Only | Print | Product List | Glossary Off
Versions: 1 2 3 4 5 6 7 8 9 10 11 12 13 14 15 16 17 18 19 20 21 22 23 24 25 26 27 28 29 30 31 32 33 34 35 36 37 38 39

000
FTUS41 KRNK 280538
TAFBLF
TAF
KBLF 280538Z 2806/2906 31010G20KT P6SM -SN OVC045
      TEMPO 2806/2808 3SM -SN BKN015
     FM280900 31010G18KT P6SM OVC025
     FM281500 31012G22KT P6SM BKN035
     FM282200 31008KT P6SM FEW040=

USA.gov is the U.S. government's official web portal to all federal, state and local government web resources and services.